AirNav   Textron
 
 1588 users online  

CL35 Warner Springs Gliderport
Warner Springs, California, USA

GOING TO WARNER SPRINGS?


FAA INFORMATION EFFECTIVE 17 AUGUST 2017

Location

FAA Identifier: CL35
Lat/Long: 33-17-04.2100N / 116-40-10.7650W
33-17.070167N / 116-40.179417W
33.2845028 / -116.6696569
(estimated)
Elevation: 2880 ft. / 878 m (estimated)
Variation: 13E (1985)
From city: 2 miles E of WARNER SPRINGS, CA
Time zone: UTC -7 (UTC -8 during Standard Time)
Zip code: 92086

Gliderport Operations

Gliderport use: Private use. Permission required prior to landing
Activation date: 10/1984
Control tower: no
ARTCC: LOS ANGELES CENTER
FSS: SAN DIEGO FLIGHT SERVICE STATION
Attendance: 0900-1700
Wind indicator: yes
Segmented circle: yes
Landing fee: yes

Gliderport Communications

UNICOM: 122.8
WX AWOS-1 at L08 (18 nm E): 126.575 (760-767-3308)
WX ASOS at RNM (19 nm SW): 132.025 (760-789-0736)

Nearby radio navigation aids

VOR radial/distance  VOR name  Freq  Var
JLIr319/9.6JULIAN VORTAC114.0015E
TRMr218/32.8THERMAL VORTAC116.2013E
PSPr186/37.1PALM SPRINGS VORTAC115.5013E
OCNr071/37.6OCEANSIDE VORTAC115.3015E
HDFr125/(39.2)HOMELAND VOR113.4014E

Gliderport Services

Runway Information

Runway 8/26

Dimensions: 3500 x 70 ft. / 1067 x 21 m
Surface: asphalt
RUNWAY 8  RUNWAY 26
Latitude: 33-17.060333N33-17.080000N
Longitude: 116-40.522667W116-39.836167W
Elevation: 2873.0 ft.2914.0 ft.
Traffic pattern: leftleft
Obstructions: none200 ft. hill, 5200 ft. from runway

Gliderport Ownership and Management from official FAA records

Ownership: Privately-owned
Owner: WARNER SPRINGS RANCH RESORT, LLC
31930 HWY 79
WARNER SPRINGS, CA 92086
Phone 760-782-4200
SKY SAILING 31930 HWY 79.
Manager: BRET WILLAT
SKY SAILING 31930 HWY 79
WARNER SPRINGS, CA 92086
Phone 760-782-0404
LEASEE.

Gliderport Operational Statistics

Aircraft based on the field: 80
Single engine airplanes: 10
Gliders airplanes: 70
    

Instrument Procedures

There are no published instrument procedures at CL35.

Some nearby airports with instrument procedures:

L08 - Borrego Valley Airport (18 nm E)
KRNM - Ramona Airport (19 nm SW)
F70 - French Valley Airport (29 nm NW)
L18 - Fallbrook Community Airpark (29 nm W)
KSEE - Gillespie Field Airport (31 nm SW)
 
Loc | Ops | Rwys | IFR | FBO | Links
Com | Nav | Svcs | Stats | Notes


 
Area around CL35 (Warner Springs Gliderport)
 
Road maps at: MapQuest Bing Google
 
Aerial photo
WARNING: Photo may not be current or correct
Aerial photo of CL35 (Warner Springs Gliderport)
Photo by Steve Lupinacci
Photo taken 27-May-2008

Do you have a better or more recent aerial photo of Warner Springs Gliderport that you would like to share? If so, please send us your photo.

 
Sectional chart

 
Airport distance calculator
Flying to Warner Springs Gliderport? Find the distance to fly.

From to CL35

Sunrise and sunset
Times for 22-Aug-2017
 Local
(UTC-7)
 Zulu
(UTC)
Morning civil twilight05:4912:49
Sunrise06:1513:15
Sunset19:2402:24
Evening civil twilight19:5002:50

Current date and time
Zulu (UTC)  22-Aug-2017 16:42:33
Local (UTC-7)  22-Aug-2017 09:42:33
 
METAR
KRNM 
20nm SW 
221553Z 25003KT 10SM FEW003 19/16 A3005 RMK AO2 SLP164 T01940161
KF70 
29nm NW 
221615Z AUTO 00000KT 10SM CLR 21/15 A3005 RMK AO1
KL18 
29nm W 
221615Z AUTO 00000KT 10SM SCT007 20/16 A3004 RMK AO2
KSEE 
32nm SW 
221547Z 00000KT 7SM OVC012 20/17 A3005
KCRQ 
32nm W 
221553Z AUTO VRB03KT 8SM OVC011 19/17 A3003 RMK AO2 SLP165 T01940172
KTRM 
33nm NE 
221552Z AUTO 35005KT 10SM CLR 33/10 A2989 RMK AO2 SLP125 T03330100
KPSP 
33nm N 
221553Z 35005KT 10SM CLR 35/07 A2995 RMK AO2 SLP136 T03500067
KNFG 
33nm W 
221555Z VRB04KT 7SM BKN012 14/14 A3003 RMK AO2 SLP168 T01440139 $
KNKX 
34nm SW 
221555Z VRB03KT 10SM OVC012 23/16 A3003 RMK AO2 SLP164 T02280161 $
KOKB 
34nm W 
221552Z AUTO 00000KT 8SM BKN013 21/17 A3002 RMK AO2 SLP165 T02110167
TAF
KCRQ 
32nm W 
221432Z 2215/2312 VRB04KT P6SM FEW011 TEMPO 2215/2216 BKN010 FM221900 26009KT P6SM SKC FM230200 VRB04KT P6SM SCT015 FM230600 VRB03KT P6SM BKN015
KTRM 
33nm NE 
221120Z 2212/2312 VRB05KT P6SM SKC FM222000 14010KT P6SM SKC FM230100 VRB05KT P6SM SKC FM230300 33010G18KT P6SM SKC FM230800 VRB06KT P6SM SKC
KPSP 
33nm N 
221120Z 2212/2312 VRB05KT P6SM SKC FM222000 11009KT P6SM SKC FM230200 33014G22KT P6SM SKC FM230700 VRB05KT P6SM SKC
KNFG 
33nm W 
2215/2315 VRB05KT 9999 BKN012 QNH3000INS BECMG 2215/2217 22008KT 9999 FEW030 QNH2993INS TEMPO 2220/2302 22010G15KT FM230330 VRB05KT 9999 FEW030 QNH2993INS T22/2221Z T10/2313Z
KNKX 
34nm SW 
2215/2315 VRB05KT 9999 OVC010 QNH3000INS BECMG 2215/2217 30008KT 9999 FEW020 QNH2994INS BECMG 2305/2307 VRB05KT 9999 FEW020 QNH2994INS T27/2221Z T19/2313Z
NOTAMs
Click for the latest NOTAMs
NOTAMs are issued by the DoD/FAA and will open in a separate window not controlled by AirNav.

 

 
 

Would you like to see your business listed on this page?

 If your business provides an interesting product or service to pilots, flight crews, aircraft, or users of the Warner Springs Gliderport, you should consider listing it here.  To start the listing process, click on the button below
 
Add a business
 

Other Pages about Warner Springs Gliderport

www.agcsc.org/warner_springs_info.html
 
Update a link
 
Copyright © AirNav, LLC. All rights reserved. Privacy Policy  Contact